sensor_id;sensor_type;location;lat;lon;timestamp;pressure;altitude;pressure_sealevel;temperature;humidity
70304;BME280;57712;48.752;11.348;2023-02-10T00:00:17;99317.44;;;-6.08;100.00
70304;BME280;57712;48.752;11.348;2023-02-10T00:02:44;99319.59;;;-6.11;100.00
70304;BME280;57712;48.752;11.348;2023-02-10T00:05:10;99311.56;;;-6.05;100.00
70304;BME280;57712;48.752;11.348;2023-02-10T00:07:37;99312.66;;;-6.01;100.00
70304;BME280;57712;48.752;11.348;2023-02-10T00:10:04;99319.81;;;-6.17;100.00
70304;BME280;57712;48.752;11.348;2023-02-10T00:12:31;99311.56;;;-6.05;100.00
70304;BME280;57712;48.752;11.348;2023-02-10T00:14:57;99324.13;;;-6.11;100.00
70304;BME280;57712;48.752;11.348;2023-02-10T00:17:24;99327.56;;;-6.16;100.00
70304;BME280;57712;48.752;11.348;2023-02-10T00:19:50;99326.75;;;-6.16;100.00
70304;BME280;57712;48.752;11.348;2023-02-10T00:22:17;99319.53;;;-6.26;100.00
70304;BME280;57712;48.752;11.348;2023-02-10T00:24:44;99313.94;;;-6.29;100.00
70304;BME280;57712;48.752;11.348;2023-02-10T00:27:10;99324.88;;;-6.31;100.00
70304;BME280;57712;48.752;11.348;2023-02-10T00:29:37;99322.16;;;-6.46;100.00
70304;BME280;57712;48.752;11.348;2023-02-10T00:32:03;99332.84;;;-6.36;100.00
70304;BME280;57712;48.752;11.348;2023-02-10T00:34:30;99328.00;;;-6.49;100.00
70304;BME280;57712;48.752;11.348;2023-02-10T00:36:57;99328.28;;;-6.56;100.00
70304;BME280;57712;48.752;11.348;2023-02-10T00:39:23;99334.94;;;-6.48;100.00
70304;BME280;57712;48.752;11.348;2023-02-10T00:41:49;99339.16;;;-6.57;100.00
70304;BME280;57712;48.752;11.348;2023-02-10T00:44:16;99334.41;;;-6.55;100.00
70304;BME280;57712;48.752;11.348;2023-02-10T00:46:43;99341.59;;;-6.56;100.00
70304;BME280;57712;48.752;11.348;2023-02-10T00:49:10;99337.56;;;-6.63;100.00
70304;BME280;57712;48.752;11.348;2023-02-10T00:51:38;99337.31;;;-6.57;100.00
70304;BME280;57712;48.752;11.348;2023-02-10T00:54:04;99339.75;;;-6.55;100.00
70304;BME280;57712;48.752;11.348;2023-02-10T00:56:31;99345.84;;;-6.60;100.00
70304;BME280;57712;48.752;11.348;2023-02-10T00:58:58;99347.13;;;-6.68;100.00
70304;BME280;57712;48.752;11.348;2023-02-10T01:01:24;99358.59;;;-6.67;100.00
70304;BME280;57712;48.752;11.348;2023-02-10T01:03:52;99354.84;;;-6.76;100.00
70304;BME280;57712;48.752;11.348;2023-02-10T01:06:20;99350.81;;;-6.79;100.00
70304;BME280;57712;48.752;11.348;2023-02-10T01:08:47;99349.50;;;-6.76;100.00
70304;BME280;57712;48.752;11.348;2023-02-10T01:11:14;99350.00;;;-6.84;100.00
70304;BME280;57712;48.752;11.348;2023-02-10T01:13:41;99345.75;;;-6.85;100.00
70304;BME280;57712;48.752;11.348;2023-02-10T01:16:14;99342.50;;;-6.92;100.00
70304;BME280;57712;48.752;11.348;2023-02-10T01:18:43;99343.56;;;-6.93;100.00
70304;BME280;57712;48.752;11.348;2023-02-10T01:21:14;99340.34;;;-6.95;100.00
70304;BME280;57712;48.752;11.348;2023-02-10T01:23:43;99343.50;;;-6.99;100.00
70304;BME280;57712;48.752;11.348;2023-02-10T01:26:09;99334.72;;;-7.04;100.00
70304;BME280;57712;48.752;11.348;2023-02-10T01:28:38;99337.16;;;-6.97;100.00
70304;BME280;57712;48.752;11.348;2023-02-10T01:31:07;99339.25;;;-7.00;100.00
70304;BME280;57712;48.752;11.348;2023-02-10T01:33:34;99338.69;;;-7.07;100.00
70304;BME280;57712;48.752;11.348;2023-02-10T01:36:06;99345.31;;;-7.09;100.00
70304;BME280;57712;48.752;11.348;2023-02-10T01:38:32;99340.78;;;-7.09;100.00
70304;BME280;57712;48.752;11.348;2023-02-10T01:41:00;99346.13;;;-7.09;100.00
70304;BME280;57712;48.752;11.348;2023-02-10T01:43:27;99343.47;;;-7.09;100.00
70304;BME280;57712;48.752;11.348;2023-02-10T01:45:54;99337.31;;;-7.14;100.00
70304;BME280;57712;48.752;11.348;2023-02-10T01:48:21;99338.13;;;-7.14;100.00
70304;BME280;57712;48.752;11.348;2023-02-10T01:50:52;99351.69;;;-7.15;100.00
70304;BME280;57712;48.752;11.348;2023-02-10T01:53:21;99346.59;;;-7.22;100.00
70304;BME280;57712;48.752;11.348;2023-02-10T01:55:52;99345.78;;;-7.22;100.00
70304;BME280;57712;48.752;11.348;2023-02-10T01:58:24;99333.81;;;-7.20;100.00
70304;BME280;57712;48.752;11.348;2023-02-10T02:00:51;99336.75;;;-7.21;100.00
70304;BME280;57712;48.752;11.348;2023-02-10T02:03:18;99345.50;;;-7.26;100.00
70304;BME280;57712;48.752;11.348;2023-02-10T02:05:45;99349.25;;;-7.22;100.00
70304;BME280;57712;48.752;11.348;2023-02-10T02:08:16;99350.81;;;-7.26;100.00
70304;BME280;57712;48.752;11.348;2023-02-10T02:19:04;99340.72;;;-7.29;100.00
70304;BME280;57712;48.752;11.348;2023-02-10T02:25:00;99357.69;;;-7.35;100.00
70304;BME280;57712;48.752;11.348;2023-02-10T02:33:55;99344.91;;;-7.33;100.00
70304;BME280;57712;48.752;11.348;2023-02-10T02:36:33;99344.31;;;-7.40;100.00
70304;BME280;57712;48.752;11.348;2023-02-10T02:39:03;99340.31;;;-7.43;100.00
70304;BME280;57712;48.752;11.348;2023-02-10T02:41:32;99342.25;;;-7.38;100.00
70304;BME280;57712;48.752;11.348;2023-02-10T02:44:00;99345.38;;;-7.46;100.00
70304;BME280;57712;48.752;11.348;2023-02-10T02:46:37;99343.75;;;-7.47;100.00
70304;BME280;57712;48.752;11.348;2023-02-10T02:49:16;99361.34;;;-7.46;100.00
70304;BME280;57712;48.752;11.348;2023-02-10T02:51:54;99364.00;;;-7.46;100.00
70304;BME280;57712;48.752;11.348;2023-02-10T02:54:29;99357.31;;;-7.49;100.00
70304;BME280;57712;48.752;11.348;2023-02-10T02:57:09;99361.88;;;-7.44;100.00
70304;BME280;57712;48.752;11.348;2023-02-10T02:59:42;99362.66;;;-7.49;100.00
70304;BME280;57712;48.752;11.348;2023-02-10T03:02:14;99370.31;;;-7.52;100.00
70304;BME280;57712;48.752;11.348;2023-02-10T03:04:41;99372.69;;;-7.56;100.00
70304;BME280;57712;48.752;11.348;2023-02-10T03:07:09;99372.50;;;-7.49;100.00
70304;BME280;57712;48.752;11.348;2023-02-10T03:09:35;99370.03;;;-7.56;100.00
70304;BME280;57712;48.752;11.348;2023-02-10T03:12:02;99378.31;;;-7.52;100.00
70304;BME280;57712;48.752;11.348;2023-02-10T03:14:29;99375.09;;;-7.54;100.00
70304;BME280;57712;48.752;11.348;2023-02-10T03:16:56;99371.91;;;-7.57;100.00
70304;BME280;57712;48.752;11.348;2023-02-10T03:19:23;99375.09;;;-7.54;100.00
70304;BME280;57712;48.752;11.348;2023-02-10T03:21:49;99376.13;;;-7.61;100.00
70304;BME280;57712;48.752;11.348;2023-02-10T03:24:16;99376.41;;;-7.57;100.00
70304;BME280;57712;48.752;11.348;2023-02-10T03:26:43;99379.88;;;-7.57;100.00
70304;BME280;57712;48.752;11.348;2023-02-10T03:29:11;99379.34;;;-7.59;100.00
70304;BME280;57712;48.752;11.348;2023-02-10T03:31:39;99383.53;;;-7.63;100.00
70304;BME280;57712;48.752;11.348;2023-02-10T03:34:05;99381.94;;;-7.64;100.00
70304;BME280;57712;48.752;11.348;2023-02-10T03:36:32;99378.72;;;-7.66;100.00
70304;BME280;57712;48.752;11.348;2023-02-10T03:39:03;99390.97;;;-7.65;100.00
70304;BME280;57712;48.752;11.348;2023-02-10T03:41:30;99390.88;;;-7.75;100.00
70304;BME280;57712;48.752;11.348;2023-02-10T03:43:57;99393.84;;;-7.71;100.00
70304;BME280;57712;48.752;11.348;2023-02-10T03:46:23;99394.31;;;-7.79;100.00
70304;BME280;57712;48.752;11.348;2023-02-10T03:48:50;99395.59;;;-7.82;100.00
70304;BME280;57712;48.752;11.348;2023-02-10T03:51:16;99398.78;;;-7.85;100.00
70304;BME280;57712;48.752;11.348;2023-02-10T03:53:43;99413.66;;;-7.84;100.00
70304;BME280;57712;48.752;11.348;2023-02-10T03:56:09;99413.63;;;-7.89;100.00
70304;BME280;57712;48.752;11.348;2023-02-10T03:58:37;99407.53;;;-7.85;100.00
70304;BME280;57712;48.752;11.348;2023-02-10T04:01:13;99416.28;;;-7.89;100.00
70304;BME280;57712;48.752;11.348;2023-02-10T04:03:40;99421.06;;;-7.91;100.00
70304;BME280;57712;48.752;11.348;2023-02-10T04:06:08;99419.50;;;-7.87;100.00
70304;BME280;57712;48.752;11.348;2023-02-10T04:08:35;99413.56;;;-7.94;100.00
70304;BME280;57712;48.752;11.348;2023-02-10T04:11:03;99421.06;;;-7.91;100.00
70304;BME280;57712;48.752;11.348;2023-02-10T04:13:30;99420.00;;;-7.90;100.00
70304;BME280;57712;48.752;11.348;2023-02-10T04:16:04;99424.44;;;-7.96;100.00
70304;BME280;57712;48.752;11.348;2023-02-10T04:18:31;99431.88;;;-7.98;100.00
70304;BME280;57712;48.752;11.348;2023-02-10T04:20:59;99432.44;;;-7.96;100.00
70304;BME280;57712;48.752;11.348;2023-02-10T04:23:29;99425.00;;;-7.94;100.00
70304;BME280;57712;48.752;11.348;2023-02-10T04:25:56;99434.78;;;-7.99;100.00
70304;BME280;57712;48.752;11.348;2023-02-10T04:28:23;99433.75;;;-7.98;100.00
70304;BME280;57712;48.752;11.348;2023-02-10T04:30:53;99432.56;;;-8.07;100.00
70304;BME280;57712;48.752;11.348;2023-02-10T04:33:21;99427.31;;;-8.02;100.00
70304;BME280;57712;48.752;11.348;2023-02-10T04:35:48;99425.41;;;-8.07;100.00
70304;BME280;57712;48.752;11.348;2023-02-10T04:38:16;99418.22;;;-8.06;100.00
70304;BME280;57712;48.752;11.348;2023-02-10T04:40:43;99428.34;;;-8.03;100.00
70304;BME280;57712;48.752;11.348;2023-02-10T04:43:11;99423.81;;;-8.08;100.00
70304;BME280;57712;48.752;11.348;2023-02-10T04:45:37;99423.81;;;-8.08;100.00
70304;BME280;57712;48.752;11.348;2023-02-10T04:48:04;99420.69;;;-8.00;100.00
70304;BME280;57712;48.752;11.348;2023-02-10T04:50:31;99428.94;;;-8.01;100.00
70304;BME280;57712;48.752;11.348;2023-02-10T04:52:58;99430.81;;;-7.97;100.00
70304;BME280;57712;48.752;11.348;2023-02-10T04:55:25;99436.66;;;-8.00;100.00
70304;BME280;57712;48.752;11.348;2023-02-10T04:57:52;99429.41;;;-8.04;100.00
70304;BME280;57712;48.752;11.348;2023-02-10T05:00:19;99421.97;;;-8.02;100.00
70304;BME280;57712;48.752;11.348;2023-02-10T05:02:45;99436.84;;;-8.06;100.00
70304;BME280;57712;48.752;11.348;2023-02-10T05:05:12;99432.63;;;-8.02;100.00
70304;BME280;57712;48.752;11.348;2023-02-10T05:07:40;99431.53;;;-8.06;100.00
70304;BME280;57712;48.752;11.348;2023-02-10T05:10:07;99437.63;;;-8.06;100.00
70304;BME280;57712;48.752;11.348;2023-02-10T05:12:34;99440.59;;;-8.02;100.00
70304;BME280;57712;48.752;11.348;2023-02-10T05:15:00;99442.53;;;-7.98;100.00
70304;BME280;57712;48.752;11.348;2023-02-10T05:17:27;99448.63;;;-7.97;100.00
70304;BME280;57712;48.752;11.348;2023-02-10T05:19:54;99445.19;;;-7.98;100.00
70304;BME280;57712;48.752;11.348;2023-02-10T05:22:20;99440.91;;;-7.99;100.00
70304;BME280;57712;48.752;11.348;2023-02-10T05:24:50;99445.91;;;-8.02;100.00
70304;BME280;57712;48.752;11.348;2023-02-10T05:27:18;99445.44;;;-7.99;100.00
70304;BME280;57712;48.752;11.348;2023-02-10T05:29:44;99450.69;;;-8.04;100.00
70304;BME280;57712;48.752;11.348;2023-02-10T05:32:11;99452.84;;;-8.01;100.00
70304;BME280;57712;48.752;11.348;2023-02-10T05:34:37;99442.94;;;-8.06;100.00
70304;BME280;57712;48.752;11.348;2023-02-10T05:37:04;99445.69;;;-8.01;100.00
70304;BME280;57712;48.752;11.348;2023-02-10T05:39:31;99447.53;;;-8.01;100.00
70304;BME280;57712;48.752;11.348;2023-02-10T05:41:58;99443.25;;;-8.02;100.00
70304;BME280;57712;48.752;11.348;2023-02-10T05:44:26;99456.78;;;-8.04;100.00
70304;BME280;57712;48.752;11.348;2023-02-10T05:46:53;99455.50;;;-8.01;100.00
70304;BME280;57712;48.752;11.348;2023-02-10T05:49:20;99458.19;;;-8.01;100.00
70304;BME280;57712;48.752;11.348;2023-02-10T05:51:47;99456.00;;;-8.04;100.00
70304;BME280;57712;48.752;11.348;2023-02-10T05:54:17;99454.94;;;-8.03;100.00
70304;BME280;57712;48.752;11.348;2023-02-10T05:56:44;99460.84;;;-8.01;100.00
70304;BME280;57712;48.752;11.348;2023-02-10T05:59:11;99471.94;;;-8.04;100.00
70304;BME280;57712;48.752;11.348;2023-02-10T06:01:42;99478.31;;;-8.05;100.00
70304;BME280;57712;48.752;11.348;2023-02-10T06:04:09;99476.78;;;-8.01;100.00
70304;BME280;57712;48.752;11.348;2023-02-10T06:06:36;99485.25;;;-8.04;100.00
70304;BME280;57712;48.752;11.348;2023-02-10T06:09:03;99494.34;;;-8.00;100.00
70304;BME280;57712;48.752;11.348;2023-02-10T06:11:30;99499.66;;;-8.00;100.00
70304;BME280;57712;48.752;11.348;2023-02-10T06:13:56;99505.44;;;-8.03;100.00
70304;BME280;57712;48.752;11.348;2023-02-10T06:16:23;99507.56;;;-8.05;100.00
70304;BME280;57712;48.752;11.348;2023-02-10T06:18:50;99512.38;;;-8.02;100.00
70304;BME280;57712;48.752;11.348;2023-02-10T06:21:16;99511.09;;;-8.00;100.00
70304;BME280;57712;48.752;11.348;2023-02-10T06:23:43;99511.91;;;-7.99;100.00
70304;BME280;57712;48.752;11.348;2023-02-10T06:26:10;99501.75;;;-8.02;100.00
70304;BME280;57712;48.752;11.348;2023-02-10T06:28:36;99514.47;;;-8.04;100.00
70304;BME280;57712;48.752;11.348;2023-02-10T06:31:03;99512.56;;;-8.09;100.00
70304;BME280;57712;48.752;11.348;2023-02-10T06:33:31;99515.50;;;-8.10;100.00
70304;BME280;57712;48.752;11.348;2023-02-10T06:36:02;99517.38;;;-8.06;100.00
70304;BME280;57712;48.752;11.348;2023-02-10T06:38:35;99511.56;;;-8.03;100.00
70304;BME280;57712;48.752;11.348;2023-02-10T06:41:03;99511.09;;;-8.00;100.00
70304;BME280;57712;48.752;11.348;2023-02-10T06:43:29;99514.00;;;-8.01;100.00
70304;BME280;57712;48.752;11.348;2023-02-10T06:45:56;99516.97;;;-7.98;100.00
70304;BME280;57712;48.752;11.348;2023-02-10T06:48:23;99518.31;;;-7.95;100.00
70304;BME280;57712;48.752;11.348;2023-02-10T06:50:50;99519.19;;;-7.90;100.00
70304;BME280;57712;48.752;11.348;2023-02-10T06:53:16;99525.75;;;-7.97;100.00
70304;BME280;57712;48.752;11.348;2023-02-10T06:55:43;99535.41;;;-7.91;100.00
70304;BME280;57712;48.752;11.348;2023-02-10T06:58:09;99539.97;;;-7.87;100.00
70304;BME280;57712;48.752;11.348;2023-02-10T07:00:36;99534.94;;;-7.83;100.00
70304;BME280;57712;48.752;11.348;2023-02-10T07:03:03;99531.81;;;-7.80;100.00
70304;BME280;57712;48.752;11.348;2023-02-10T07:05:30;99536.91;;;-7.73;100.00
70304;BME280;57712;48.752;11.348;2023-02-10T07:07:57;99532.72;;;-7.69;100.00
70304;BME280;57712;48.752;11.348;2023-02-10T07:10:32;99539.69;;;-7.63;100.00
70304;BME280;57712;48.752;11.348;2023-02-10T07:12:58;99544.31;;;-7.53;100.00
70304;BME280;57712;48.752;11.348;2023-02-10T07:15:25;99542.81;;;-7.44;100.00
70304;BME280;57712;48.752;11.348;2023-02-10T07:17:52;99553.31;;;-7.33;100.00
70304;BME280;57712;48.752;11.348;2023-02-10T07:20:19;99557.34;;;-7.30;100.00
70304;BME280;57712;48.752;11.348;2023-02-10T07:22:46;99548.72;;;-7.15;100.00
70304;BME280;57712;48.752;11.348;2023-02-10T07:25:13;99556.63;;;-6.93;100.00
70304;BME280;57712;48.752;11.348;2023-02-10T07:27:40;99556.44;;;-6.82;100.00
70304;BME280;57712;48.752;11.348;2023-02-10T07:30:07;99556.72;;;-6.78;100.00
70304;BME280;57712;48.752;11.348;2023-02-10T07:32:34;99566.97;;;-6.65;100.00
70304;BME280;57712;48.752;11.348;2023-02-10T07:35:01;99558.50;;;-6.57;100.00
70304;BME280;57712;48.752;11.348;2023-02-10T07:37:27;99567.16;;;-6.40;100.00
70304;BME280;57712;48.752;11.348;2023-02-10T07:39:54;99582.47;;;-6.20;100.00
70304;BME280;57712;48.752;11.348;2023-02-10T07:42:20;99583.66;;;-5.95;100.00
70304;BME280;57712;48.752;11.348;2023-02-10T07:44:47;99581.34;;;-5.76;100.00
70304;BME280;57712;48.752;11.348;2023-02-10T07:47:15;99591.28;;;-5.62;100.00
70304;BME280;57712;48.752;11.348;2023-02-10T07:49:42;99595.94;;;-5.27;100.00
70304;BME280;57712;48.752;11.348;2023-02-10T07:52:09;99594.91;;;-5.05;100.00
70304;BME280;57712;48.752;11.348;2023-02-10T07:54:36;99592.28;;;-5.00;100.00
70304;BME280;57712;48.752;11.348;2023-02-10T07:57:03;99596.00;;;-4.81;100.00
70304;BME280;57712;48.752;11.348;2023-02-10T07:59:29;99598.19;;;-4.57;100.00
70304;BME280;57712;48.752;11.348;2023-02-10T08:01:56;99582.94;;;-4.47;100.00
70304;BME280;57712;48.752;11.348;2023-02-10T08:04:22;99585.84;;;-4.28;100.00
70304;BME280;57712;48.752;11.348;2023-02-10T08:06:49;99583.97;;;-4.27;100.00
70304;BME280;57712;48.752;11.348;2023-02-10T08:09:19;99581.00;;;-4.11;100.00
70304;BME280;57712;48.752;11.348;2023-02-10T08:11:45;99578.25;;;-3.75;100.00
70304;BME280;57712;48.752;11.348;2023-02-10T08:14:12;99568.78;;;-3.57;100.00
70304;BME280;57712;48.752;11.348;2023-02-10T08:16:38;99577.00;;;-3.38;100.00
70304;BME280;57712;48.752;11.348;2023-02-10T08:19:05;99575.16;;;-3.48;100.00
70304;BME280;57712;48.752;11.348;2023-02-10T08:21:32;99573.19;;;-3.27;100.00
70304;BME280;57712;48.752;11.348;2023-02-10T08:23:59;99575.59;;;-3.26;100.00
70304;BME280;57712;48.752;11.348;2023-02-10T08:26:26;99571.91;;;-2.91;100.00
70304;BME280;57712;48.752;11.348;2023-02-10T08:28:52;99571.91;;;-2.91;100.00
70304;BME280;57712;48.752;11.348;2023-02-10T08:31:21;99575.13;;;-2.94;100.00
70304;BME280;57712;48.752;11.348;2023-02-10T08:33:48;99576.06;;;-2.74;100.00
70304;BME280;57712;48.752;11.348;2023-02-10T08:36:18;99580.47;;;-2.54;100.00
70304;BME280;57712;48.752;11.348;2023-02-10T08:38:46;99587.03;;;-2.37;100.00
70304;BME280;57712;48.752;11.348;2023-02-10T08:41:13;99587.03;;;-2.37;100.00
70304;BME280;57712;48.752;11.348;2023-02-10T08:43:40;99593.25;;;-2.12;100.00
70304;BME280;57712;48.752;11.348;2023-02-10T08:46:08;99593.66;;;-2.00;100.00
70304;BME280;57712;48.752;11.348;2023-02-10T08:48:35;99597.41;;;-2.01;100.00
70304;BME280;57712;48.752;11.348;2023-02-10T08:51:09;99596.88;;;-1.98;100.00
70304;BME280;57712;48.752;11.348;2023-02-10T08:53:36;99596.50;;;-1.67;100.00
70304;BME280;57712;48.752;11.348;2023-02-10T08:56:07;99599.28;;;-1.72;100.00
70304;BME280;57712;48.752;11.348;2023-02-10T08:58:34;99604.72;;;-1.54;100.00
70304;BME280;57712;48.752;11.348;2023-02-10T09:01:01;99613.06;;;-1.55;100.00
70304;BME280;57712;48.752;11.348;2023-02-10T09:03:33;99616.63;;;-1.41;100.00
70304;BME280;57712;48.752;11.348;2023-02-10T09:06:00;99614.94;;;-1.13;100.00
70304;BME280;57712;48.752;11.348;2023-02-10T09:08:27;99617.94;;;-1.14;100.00
70304;BME280;57712;48.752;11.348;2023-02-10T09:10:53;99611.06;;;-1.26;100.00
70304;BME280;57712;48.752;11.348;2023-02-10T09:13:19;99614.44;;;-0.96;100.00
70304;BME280;57712;48.752;11.348;2023-02-10T09:15:50;99615.75;;;-0.75;100.00
70304;BME280;57712;48.752;11.348;2023-02-10T09:18:16;99615.19;;;-0.72;100.00
70304;BME280;57712;48.752;11.348;2023-02-10T09:20:43;99613.94;;;-0.61;100.00
70304;BME280;57712;48.752;11.348;2023-02-10T09:23:09;99607.88;;;-0.52;100.00
70304;BME280;57712;48.752;11.348;2023-02-10T09:25:36;99618.44;;;-0.56;100.00
70304;BME280;57712;48.752;11.348;2023-02-10T09:28:03;99621.13;;;-0.75;100.00
70304;BME280;57712;48.752;11.348;2023-02-10T09:30:29;99622.22;;;-0.95;100.00
70304;BME280;57712;48.752;11.348;2023-02-10T09:32:56;99621.78;;;-0.64;100.00
70304;BME280;57712;48.752;11.348;2023-02-10T09:35:22;99619.22;;;-0.55;100.00
70304;BME280;57712;48.752;11.348;2023-02-10T09:37:49;99639.97;;;-0.23;100.00
70304;BME280;57712;48.752;11.348;2023-02-10T09:40:23;99642.38;;;0.11;100.00
70304;BME280;57712;48.752;11.348;2023-02-10T09:45:33;99633.00;;;0.22;100.00
70304;BME280;57712;48.752;11.348;2023-02-10T09:48:17;99633.41;;;0.15;100.00
70304;BME280;57712;48.752;11.348;2023-02-10T09:53:21;99632.63;;;-0.18;100.00
70304;BME280;57712;48.752;11.348;2023-02-10T09:55:55;99628.00;;;-0.31;100.00
70304;BME280;57712;48.752;11.348;2023-02-10T09:58:40;99622.47;;;-0.07;100.00
70304;BME280;57712;48.752;11.348;2023-02-10T10:03:48;99619.03;;;0.75;100.00
70304;BME280;57712;48.752;11.348;2023-02-10T10:06:27;99624.94;;;0.49;100.00
70304;BME280;57712;48.752;11.348;2023-02-10T10:11:38;99621.63;;;0.25;100.00
70304;BME280;57712;48.752;11.348;2023-02-10T10:14:17;99619.13;;;0.28;100.00
70304;BME280;57712;48.752;11.348;2023-02-10T10:17:46;99620.81;;;0.52;100.00
70304;BME280;57712;48.752;11.348;2023-02-10T10:20:05;99617.44;;;0.60;100.00
70304;BME280;57712;48.752;11.348;2023-02-10T10:30:46;99610.22;;;0.83;100.00
70304;BME280;57712;48.752;11.348;2023-02-10T10:33:23;99608.34;;;1.20;100.00
70304;BME280;57712;48.752;11.348;2023-02-10T10:35:52;99612.81;;;1.38;100.00
70304;BME280;57712;48.752;11.348;2023-02-10T10:38:23;99606.94;;;1.22;100.00
70304;BME280;57712;48.752;11.348;2023-02-10T10:40:54;99598.81;;;2.12;100.00
70304;BME280;57712;48.752;11.348;2023-02-10T10:43:26;99600.69;;;3.25;100.00
70304;BME280;57712;48.752;11.348;2023-02-10T10:46:03;99600.91;;;2.63;100.00
70304;BME280;57712;48.752;11.348;2023-02-10T10:48:32;99594.59;;;2.37;100.00
70304;BME280;57712;48.752;11.348;2023-02-10T10:51:03;99598.19;;;2.54;100.00
70304;BME280;57712;48.752;11.348;2023-02-10T11:01:51;99579.38;;;2.49;100.00
70304;BME280;57712;48.752;11.348;2023-02-10T11:04:24;99571.38;;;2.93;100.00
70304;BME280;57712;48.752;11.348;2023-02-10T11:06:55;99565.50;;;3.25;100.00
70304;BME280;57712;48.752;11.348;2023-02-10T11:09:28;99562.41;;;2.66;100.00
70304;BME280;57712;48.752;11.348;2023-02-10T11:12:25;99555.09;;;2.75;100.00
70304;BME280;57712;48.752;11.348;2023-02-10T11:14:53;99555.22;;;2.53;100.00
70304;BME280;57712;48.752;11.348;2023-02-10T11:17:30;99556.56;;;2.24;100.00
70304;BME280;57712;48.752;11.348;2023-02-10T11:22:38;99556.41;;;3.04;100.00
70304;BME280;57712;48.752;11.348;2023-02-10T11:25:29;99546.69;;;2.94;100.00
70304;BME280;57712;48.752;11.348;2023-02-10T11:27:58;99540.53;;;5.22;100.00
70304;BME280;57712;48.752;11.348;2023-02-10T11:32:58;99531.38;;;4.85;100.00
70304;BME280;57712;48.752;11.348;2023-02-10T11:35:26;99536.31;;;4.92;100.00
70304;BME280;57712;48.752;11.348;2023-02-10T11:37:56;99535.13;;;5.02;100.00
70304;BME280;57712;48.752;11.348;2023-02-10T11:40:25;99543.63;;;4.12;100.00
70304;BME280;57712;48.752;11.348;2023-02-10T11:42:55;99537.94;;;4.63;100.00
70304;BME280;57712;48.752;11.348;2023-02-10T11:45:27;99539.97;;;4.08;100.00
70304;BME280;57712;48.752;11.348;2023-02-10T11:48:16;99533.09;;;5.65;96.05
70304;BME280;57712;48.752;11.348;2023-02-10T11:50:44;99534.75;;;5.45;94.49
70304;BME280;57712;48.752;11.348;2023-02-10T11:53:32;99535.38;;;6.57;87.40
70304;BME280;57712;48.752;11.348;2023-02-10T11:59:34;99530.88;;;7.29;75.05
70304;BME280;57712;48.752;11.348;2023-02-10T12:02:37;99527.97;;;7.22;67.98
70304;BME280;57712;48.752;11.348;2023-02-10T12:05:19;99529.69;;;6.62;81.23
70304;BME280;57712;48.752;11.348;2023-02-10T12:10:44;99519.50;;;8.15;69.76
70304;BME280;57712;48.752;11.348;2023-02-10T12:13:26;99531.72;;;9.22;66.18
70304;BME280;57712;48.752;11.348;2023-02-10T12:18:50;99526.66;;;7.04;65.83
70304;BME280;57712;48.752;11.348;2023-02-10T12:21:40;99524.94;;;8.62;65.29
70304;BME280;57712;48.752;11.348;2023-02-10T12:27:07;99517.91;;;6.58;73.90
70304;BME280;57712;48.752;11.348;2023-02-10T12:35:15;99517.94;;;5.64;81.87
70304;BME280;57712;48.752;11.348;2023-02-10T12:52:07;99514.00;;;8.97;63.98
70304;BME280;57712;48.752;11.348;2023-02-10T12:55:01;99511.56;;;8.09;61.60
70304;BME280;57712;48.752;11.348;2023-02-10T13:00:21;99498.50;;;10.08;55.61
70304;BME280;57712;48.752;11.348;2023-02-10T13:02:56;99508.84;;;9.73;56.44
70304;BME280;57712;48.752;11.348;2023-02-10T13:05:31;99504.78;;;9.05;56.79
70304;BME280;57712;48.752;11.348;2023-02-10T13:08:00;99504.63;;;10.48;54.58
70304;BME280;57712;48.752;11.348;2023-02-10T13:10:38;99499.47;;;11.29;51.07
70304;BME280;57712;48.752;11.348;2023-02-10T13:13:11;99497.47;;;8.90;56.04
70304;BME280;57712;48.752;11.348;2023-02-10T13:15:45;99491.13;;;9.05;57.53
70304;BME280;57712;48.752;11.348;2023-02-10T13:18:22;99490.09;;;8.75;57.74
70304;BME280;57712;48.752;11.348;2023-02-10T13:21:09;99483.50;;;9.34;55.76
70304;BME280;57712;48.752;11.348;2023-02-10T13:23:48;99486.38;;;8.00;54.03
70304;BME280;57712;48.752;11.348;2023-02-10T13:29:29;99484.31;;;7.34;53.27
70304;BME280;57712;48.752;11.348;2023-02-10T13:34:43;99476.00;;;6.75;58.16
70304;BME280;57712;48.752;11.348;2023-02-10T13:39:59;99473.28;;;7.74;54.75
70304;BME280;57712;48.752;11.348;2023-02-10T13:42:36;99476.63;;;7.99;55.67
70304;BME280;57712;48.752;11.348;2023-02-10T13:45:14;99465.38;;;8.87;54.29
70304;BME280;57712;48.752;11.348;2023-02-10T13:55:26;99463.72;;;6.04;58.93
70304;BME280;57712;48.752;11.348;2023-02-10T14:00:44;99460.78;;;6.74;59.32
70304;BME280;57712;48.752;11.348;2023-02-10T14:08:28;99458.72;;;5.94;59.83
70304;BME280;57712;48.752;11.348;2023-02-10T14:13:58;99468.22;;;5.75;61.30
70304;BME280;57712;48.752;11.348;2023-02-10T14:16:29;99466.06;;;5.81;64.75
70304;BME280;57712;48.752;11.348;2023-02-10T14:19:20;99471.66;;;4.85;68.67
70304;BME280;57712;48.752;11.348;2023-02-10T14:21:48;99455.75;;;4.54;70.80
70304;BME280;57712;48.752;11.348;2023-02-10T14:24:23;99474.69;;;4.42;73.70
70304;BME280;57712;48.752;11.348;2023-02-10T14:26:55;99461.53;;;4.53;74.28
70304;BME280;57712;48.752;11.348;2023-02-10T14:29:23;99467.25;;;4.30;77.71
70304;BME280;57712;48.752;11.348;2023-02-10T14:31:55;99455.50;;;4.47;77.55
70304;BME280;57712;48.752;11.348;2023-02-10T14:34:28;99466.09;;;4.11;80.41
70304;BME280;57712;48.752;11.348;2023-02-10T14:37:00;99456.81;;;3.82;84.83
70304;BME280;57712;48.752;11.348;2023-02-10T14:39:30;99460.00;;;3.84;85.35
70304;BME280;57712;48.752;11.348;2023-02-10T14:41:58;99454.19;;;3.94;87.16
70304;BME280;57712;48.752;11.348;2023-02-10T14:44:41;99461.22;;;3.95;88.79
70304;BME280;57712;48.752;11.348;2023-02-10T14:47:20;99460.00;;;3.84;89.73